sensor_id;sensor_type;location;lat;lon;timestamp;P1;durP1;ratioP1;P2;durP2;ratioP2
74788;SDS011;63313;48.258;12.518;2024-01-15T00:01:24;66.09;;;21.68;;
74788;SDS011;63313;48.258;12.518;2024-01-15T00:06:52;59.49000000000001;;;20.64;;
74788;SDS011;63313;48.258;12.518;2024-01-15T00:12:19;51.370000000000005;;;20.330000000000002;;
74788;SDS011;63313;48.258;12.518;2024-01-15T00:17:46;49.26;;;18.95;;
74788;SDS011;63313;48.258;12.518;2024-01-15T00:23:13;56.08;;;18.46;;
74788;SDS011;63313;48.258;12.518;2024-01-15T00:28:40;41.290000000000006;;;16.540000000000003;;
74788;SDS011;63313;48.258;12.518;2024-01-15T00:34:07;56.0;;;19.389999999999997;;
74788;SDS011;63313;48.258;12.518;2024-01-15T00:39:34;53.65;;;17.59;;
74788;SDS011;63313;48.258;12.518;2024-01-15T00:45:01;52.169999999999995;;;18.05;;
74788;SDS011;63313;48.258;12.518;2024-01-15T00:50:29;61.92;;;19.349999999999998;;
74788;SDS011;63313;48.258;12.518;2024-01-15T00:55:56;55.2;;;19.69;;
74788;SDS011;63313;48.258;12.518;2024-01-15T01:01:23;61.760000000000005;;;21.799999999999997;;
74788;SDS011;63313;48.258;12.518;2024-01-15T01:06:50;43.73;;;16.509999999999998;;
74788;SDS011;63313;48.258;12.518;2024-01-15T01:12:17;35.56;;;12.61;;
74788;SDS011;63313;48.258;12.518;2024-01-15T01:17:44;31.659999999999997;;;12.229999999999999;;
74788;SDS011;63313;48.258;12.518;2024-01-15T01:23:11;29.080000000000002;;;10.440000000000001;;
74788;SDS011;63313;48.258;12.518;2024-01-15T01:28:38;31.7;;;11.889999999999999;;
74788;SDS011;63313;48.258;12.518;2024-01-15T01:34:06;30.209999999999997;;;10.82;;
74788;SDS011;63313;48.258;12.518;2024-01-15T01:39:33;23.630000000000003;;;10.620000000000001;;
74788;SDS011;63313;48.258;12.518;2024-01-15T01:45:00;27.75;;;10.5;;
74788;SDS011;63313;48.258;12.518;2024-01-15T01:50:27;23.05;;;8.66;;
74788;SDS011;63313;48.258;12.518;2024-01-15T01:55:54;22.93;;;8.870000000000001;;
74788;SDS011;63313;48.258;12.518;2024-01-15T02:01:22;25.169999999999998;;;8.989999999999998;;
74788;SDS011;63313;48.258;12.518;2024-01-15T02:06:50;23.419999999999998;;;9.4;;
74788;SDS011;63313;48.258;12.518;2024-01-15T02:12:17;26.26;;;9.52;;
74788;SDS011;63313;48.258;12.518;2024-01-15T02:18:00;24.169999999999998;;;9.25;;
74788;SDS011;63313;48.258;12.518;2024-01-15T02:23:27;26.51;;;10.32;;
74788;SDS011;63313;48.258;12.518;2024-01-15T02:28:54;25.330000000000002;;;9.649999999999999;;
74788;SDS011;63313;48.258;12.518;2024-01-15T02:34:22;24.44;;;9.700000000000001;;
74788;SDS011;63313;48.258;12.518;2024-01-15T02:39:49;24.13;;;9.400000000000002;;
74788;SDS011;63313;48.258;12.518;2024-01-15T02:45:16;26.339999999999996;;;9.739999999999998;;
74788;SDS011;63313;48.258;12.518;2024-01-15T02:50:43;24.42;;;10.120000000000001;;
74788;SDS011;63313;48.258;12.518;2024-01-15T02:56:10;26.560000000000002;;;9.07;;
74788;SDS011;63313;48.258;12.518;2024-01-15T03:01:37;22.270000000000003;;;8.930000000000001;;
74788;SDS011;63313;48.258;12.518;2024-01-15T03:07:04;22.56;;;8.91;;
74788;SDS011;63313;48.258;12.518;2024-01-15T03:12:31;21.09;;;8.440000000000001;;
74788;SDS011;63313;48.258;12.518;2024-01-15T03:17:58;23.220000000000002;;;9.34;;
74788;SDS011;63313;48.258;12.518;2024-01-15T03:23:25;25.240000000000002;;;9.25;;
74788;SDS011;63313;48.258;12.518;2024-01-15T03:28:52;21.859999999999996;;;8.64;;
74788;SDS011;63313;48.258;12.518;2024-01-15T03:34:19;24.95;;;9.419999999999998;;
74788;SDS011;63313;48.258;12.518;2024-01-15T03:39:46;23.16;;;9.110000000000001;;
74788;SDS011;63313;48.258;12.518;2024-01-15T03:45:14;26.330000000000002;;;8.940000000000001;;
74788;SDS011;63313;48.258;12.518;2024-01-15T03:50:41;21.439999999999998;;;8.66;;
74788;SDS011;63313;48.258;12.518;2024-01-15T03:56:08;22.86;;;9.01;;
74788;SDS011;63313;48.258;12.518;2024-01-15T04:01:35;18.98;;;8.07;;
74788;SDS011;63313;48.258;12.518;2024-01-15T04:07:02;19.78;;;7.650000000000001;;
74788;SDS011;63313;48.258;12.518;2024-01-15T04:12:29;18.580000000000002;;;7.710000000000001;;
74788;SDS011;63313;48.258;12.518;2024-01-15T04:17:56;16.17;;;6.93;;
74788;SDS011;63313;48.258;12.518;2024-01-15T04:23:23;22.84;;;8.17;;
74788;SDS011;63313;48.258;12.518;2024-01-15T04:28:50;19.71;;;7.35;;
74788;SDS011;63313;48.258;12.518;2024-01-15T04:34:17;19.68;;;7.76;;
74788;SDS011;63313;48.258;12.518;2024-01-15T04:39:44;16.550000000000004;;;7.280000000000001;;
74788;SDS011;63313;48.258;12.518;2024-01-15T04:45:11;14.8;;;7.209999999999999;;
74788;SDS011;63313;48.258;12.518;2024-01-15T04:50:39;15.560000000000002;;;7.0200000000000005;;
74788;SDS011;63313;48.258;12.518;2024-01-15T04:56:06;16.58;;;6.779999999999999;;
74788;SDS011;63313;48.258;12.518;2024-01-15T05:01:33;15.959999999999999;;;6.99;;
74788;SDS011;63313;48.258;12.518;2024-01-15T05:07:00;18.79;;;6.55;;
74788;SDS011;63313;48.258;12.518;2024-01-15T05:12:27;17.62;;;6.960000000000001;;
74788;SDS011;63313;48.258;12.518;2024-01-15T05:17:54;17.22;;;6.69;;
74788;SDS011;63313;48.258;12.518;2024-01-15T05:23:21;14.059999999999999;;;6.2700000000000005;;
74788;SDS011;63313;48.258;12.518;2024-01-15T05:28:48;20.26;;;7.890000000000001;;
74788;SDS011;63313;48.258;12.518;2024-01-15T05:34:15;16.09;;;6.890000000000001;;
74788;SDS011;63313;48.258;12.518;2024-01-15T05:39:42;17.86;;;6.779999999999999;;
74788;SDS011;63313;48.258;12.518;2024-01-15T05:45:09;17.47;;;6.8;;
74788;SDS011;63313;48.258;12.518;2024-01-15T05:50:36;21.919999999999998;;;7.8;;
74788;SDS011;63313;48.258;12.518;2024-01-15T05:56:03;19.65;;;7.58;;
74788;SDS011;63313;48.258;12.518;2024-01-15T06:01:30;16.96;;;6.760000000000001;;
74788;SDS011;63313;48.258;12.518;2024-01-15T06:06:57;13.420000000000002;;;6.23;;
74788;SDS011;63313;48.258;12.518;2024-01-15T06:12:24;13.279999999999998;;;5.84;;
74788;SDS011;63313;48.258;12.518;2024-01-15T06:17:51;12.669999999999998;;;6.039999999999999;;
74788;SDS011;63313;48.258;12.518;2024-01-15T06:23:18;13.930000000000001;;;5.36;;
74788;SDS011;63313;48.258;12.518;2024-01-15T06:28:45;12.11;;;5.840000000000001;;
74788;SDS011;63313;48.258;12.518;2024-01-15T06:34:12;10.59;;;5.680000000000001;;
74788;SDS011;63313;48.258;12.518;2024-01-15T06:39:39;12.41;;;6.580000000000001;;
74788;SDS011;63313;48.258;12.518;2024-01-15T06:45:07;11.780000000000001;;;5.569999999999999;;
74788;SDS011;63313;48.258;12.518;2024-01-15T06:50:34;12.35;;;5.7299999999999995;;
74788;SDS011;63313;48.258;12.518;2024-01-15T06:56:01;16.049999999999997;;;6.270000000000001;;
74788;SDS011;63313;48.258;12.518;2024-01-15T07:01:28;10.919999999999998;;;5.02;;
74788;SDS011;63313;48.258;12.518;2024-01-15T07:06:56;11.11;;;5.040000000000001;;
74788;SDS011;63313;48.258;12.518;2024-01-15T07:12:23;13.670000000000002;;;6.010000000000001;;
74788;SDS011;63313;48.258;12.518;2024-01-15T07:17:50;13.9;;;6.24;;
74788;SDS011;63313;48.258;12.518;2024-01-15T07:23:17;10.940000000000001;;;4.8100000000000005;;
74788;SDS011;63313;48.258;12.518;2024-01-15T07:28:44;12.58;;;5.8100000000000005;;
74788;SDS011;63313;48.258;12.518;2024-01-15T07:34:11;14.579999999999998;;;5.720000000000001;;
74788;SDS011;63313;48.258;12.518;2024-01-15T07:39:38;11.79;;;4.7299999999999995;;
74788;SDS011;63313;48.258;12.518;2024-01-15T07:45:05;14.189999999999998;;;5.96;;
74788;SDS011;63313;48.258;12.518;2024-01-15T07:50:32;15.63;;;6.2299999999999995;;
74788;SDS011;63313;48.258;12.518;2024-01-15T07:55:59;13.35;;;5.8;;
74788;SDS011;63313;48.258;12.518;2024-01-15T08:01:26;10.25;;;4.87;;
74788;SDS011;63313;48.258;12.518;2024-01-15T08:06:53;12.25;;;5.890000000000001;;
74788;SDS011;63313;48.258;12.518;2024-01-15T08:12:20;8.209999999999999;;;4.83;;
74788;SDS011;63313;48.258;12.518;2024-01-15T08:17:47;12.87;;;5.5;;
74788;SDS011;63313;48.258;12.518;2024-01-15T08:23:14;11.92;;;4.92;;
74788;SDS011;63313;48.258;12.518;2024-01-15T08:28:41;10.05;;;5.07;;
74788;SDS011;63313;48.258;12.518;2024-01-15T08:34:08;9.750000000000002;;;4.640000000000001;;
74788;SDS011;63313;48.258;12.518;2024-01-15T08:39:35;9.489999999999998;;;4.7700000000000005;;
74788;SDS011;63313;48.258;12.518;2024-01-15T08:45:03;8.29;;;4.54;;
74788;SDS011;63313;48.258;12.518;2024-01-15T08:50:30;10.46;;;5.170000000000001;;
74788;SDS011;63313;48.258;12.518;2024-01-15T08:55:57;9.74;;;5.19;;
74788;SDS011;63313;48.258;12.518;2024-01-15T09:01:25;9.38;;;4.730000000000001;;
74788;SDS011;63313;48.258;12.518;2024-01-15T09:06:52;8.22;;;4.48;;
74788;SDS011;63313;48.258;12.518;2024-01-15T09:12:19;7.82;;;4.51;;
74788;SDS011;63313;48.258;12.518;2024-01-15T09:17:46;11.34;;;5.01;;
74788;SDS011;63313;48.258;12.518;2024-01-15T09:23:13;10.25;;;4.6;;
74788;SDS011;63313;48.258;12.518;2024-01-15T09:28:40;11.309999999999999;;;5.36;;
74788;SDS011;63313;48.258;12.518;2024-01-15T09:34:07;9.94;;;5.23;;
74788;SDS011;63313;48.258;12.518;2024-01-15T09:39:34;9.65;;;4.659999999999999;;
74788;SDS011;63313;48.258;12.518;2024-01-15T09:45:01;10.05;;;5.3500000000000005;;
74788;SDS011;63313;48.258;12.518;2024-01-15T09:50:28;9.139999999999999;;;4.609999999999999;;
74788;SDS011;63313;48.258;12.518;2024-01-15T09:55:55;16.67;;;5.6;;
74788;SDS011;63313;48.258;12.518;2024-01-15T10:01:23;11.239999999999998;;;5.14;;
74788;SDS011;63313;48.258;12.518;2024-01-15T10:06:50;11.69;;;4.74;;
74788;SDS011;63313;48.258;12.518;2024-01-15T10:12:18;13.6;;;5.279999999999999;;
74788;SDS011;63313;48.258;12.518;2024-01-15T10:17:45;10.11;;;5.0600000000000005;;
74788;SDS011;63313;48.258;12.518;2024-01-15T10:23:12;10.41;;;5.33;;
74788;SDS011;63313;48.258;12.518;2024-01-15T10:28:39;9.959999999999999;;;5.040000000000001;;
74788;SDS011;63313;48.258;12.518;2024-01-15T10:34:10;9.5;;;4.83;;
74788;SDS011;63313;48.258;12.518;2024-01-15T10:39:38;11.74;;;5.629999999999999;;
74788;SDS011;63313;48.258;12.518;2024-01-15T10:45:05;10.11;;;4.6899999999999995;;
74788;SDS011;63313;48.258;12.518;2024-01-15T10:50:32;12.91;;;5.07;;
74788;SDS011;63313;48.258;12.518;2024-01-15T10:56:00;9.149999999999999;;;4.540000000000001;;
74788;SDS011;63313;48.258;12.518;2024-01-15T11:01:27;10.86;;;4.8100000000000005;;
74788;SDS011;63313;48.258;12.518;2024-01-15T11:06:55;11.879999999999999;;;5.069999999999999;;
74788;SDS011;63313;48.258;12.518;2024-01-15T11:12:22;11.750000000000002;;;4.51;;
74788;SDS011;63313;48.258;12.518;2024-01-15T11:18:05;9.22;;;4.83;;
74788;SDS011;63313;48.258;12.518;2024-01-15T11:23:48;10.700000000000001;;;4.95;;
74788;SDS011;63313;48.258;12.518;2024-01-15T11:29:28;10.16;;;4.569999999999999;;
74788;SDS011;63313;48.258;12.518;2024-01-15T11:34:56;8.389999999999999;;;4.37;;
74788;SDS011;63313;48.258;12.518;2024-01-15T11:40:37;9.72;;;4.34;;
74788;SDS011;63313;48.258;12.518;2024-01-15T11:46:04;9.54;;;4.279999999999999;;
74788;SDS011;63313;48.258;12.518;2024-01-15T11:51:35;7.93;;;4.36;;
74788;SDS011;63313;48.258;12.518;2024-01-15T11:57:02;5.96;;;3.7700000000000005;;
74788;SDS011;63313;48.258;12.518;2024-01-15T12:02:30;11.4;;;4.4399999999999995;;
74788;SDS011;63313;48.258;12.518;2024-01-15T12:07:58;12.769999999999998;;;4.680000000000001;;
74788;SDS011;63313;48.258;12.518;2024-01-15T12:13:25;12.729999999999999;;;4.85;;
74788;SDS011;63313;48.258;12.518;2024-01-15T12:18:52;12.120000000000001;;;4.9;;
74788;SDS011;63313;48.258;12.518;2024-01-15T12:24:19;9.129999999999999;;;4.61;;
74788;SDS011;63313;48.258;12.518;2024-01-15T12:29:46;7.32;;;4.07;;
74788;SDS011;63313;48.258;12.518;2024-01-15T12:35:13;6.8;;;3.59;;
74788;SDS011;63313;48.258;12.518;2024-01-15T12:40:40;11.67;;;3.63;;
74788;SDS011;63313;48.258;12.518;2024-01-15T12:46:10;11.48;;;4.0200000000000005;;
74788;SDS011;63313;48.258;12.518;2024-01-15T12:51:37;9.05;;;4.49;;
74788;SDS011;63313;48.258;12.518;2024-01-15T12:57:04;10.709999999999999;;;4.1899999999999995;;
74788;SDS011;63313;48.258;12.518;2024-01-15T13:02:31;7.01;;;3.55;;
74788;SDS011;63313;48.258;12.518;2024-01-15T13:07:58;9.8;;;4.0200000000000005;;
74788;SDS011;63313;48.258;12.518;2024-01-15T13:13:25;8.34;;;3.31;;
74788;SDS011;63313;48.258;12.518;2024-01-15T13:18:52;5.65;;;3.0;;
74788;SDS011;63313;48.258;12.518;2024-01-15T13:24:20;8.219999999999999;;;3.16;;
74788;SDS011;63313;48.258;12.518;2024-01-15T13:29:47;3.72;;;2.2800000000000002;;
74788;SDS011;63313;48.258;12.518;2024-01-15T13:35:14;4.75;;;2.6100000000000003;;
74788;SDS011;63313;48.258;12.518;2024-01-15T13:40:41;5.76;;;3.1799999999999997;;
74788;SDS011;63313;48.258;12.518;2024-01-15T13:46:08;8.74;;;3.35;;
74788;SDS011;63313;48.258;12.518;2024-01-15T13:51:35;3.53;;;2.5799999999999996;;
74788;SDS011;63313;48.258;12.518;2024-01-15T13:57:03;5.0;;;2.6800000000000006;;
74788;SDS011;63313;48.258;12.518;2024-01-15T14:02:30;3.8300000000000005;;;2.62;;
74788;SDS011;63313;48.258;12.518;2024-01-15T14:07:57;4.84;;;2.93;;
74788;SDS011;63313;48.258;12.518;2024-01-15T14:13:24;6.17;;;2.83;;
74788;SDS011;63313;48.258;12.518;2024-01-15T14:18:51;6.21;;;2.9400000000000004;;
74788;SDS011;63313;48.258;12.518;2024-01-15T14:24:18;3.6800000000000006;;;2.33;;
74788;SDS011;63313;48.258;12.518;2024-01-15T14:29:45;4.779999999999999;;;2.53;;
74788;SDS011;63313;48.258;12.518;2024-01-15T14:35:12;4.540000000000001;;;2.62;;
74788;SDS011;63313;48.258;12.518;2024-01-15T14:40:39;6.76;;;3.3200000000000003;;
74788;SDS011;63313;48.258;12.518;2024-01-15T14:46:06;5.16;;;3.28;;
74788;SDS011;63313;48.258;12.518;2024-01-15T14:51:33;8.8;;;3.6699999999999995;;
74788;SDS011;63313;48.258;12.518;2024-01-15T14:57:00;7.95;;;3.0200000000000005;;
74788;SDS011;63313;48.258;12.518;2024-01-15T15:02:27;4.71;;;2.96;;
74788;SDS011;63313;48.258;12.518;2024-01-15T15:07:54;5.34;;;2.8800000000000003;;
74788;SDS011;63313;48.258;12.518;2024-01-15T15:13:21;5.409999999999999;;;2.9299999999999997;;
74788;SDS011;63313;48.258;12.518;2024-01-15T15:18:48;7.7;;;3.75;;
74788;SDS011;63313;48.258;12.518;2024-01-15T15:24:15;7.2299999999999995;;;3.8;;
74788;SDS011;63313;48.258;12.518;2024-01-15T15:29:42;7.8;;;3.7900000000000005;;
74788;SDS011;63313;48.258;12.518;2024-01-15T15:35:09;7.67;;;4.230000000000001;;
74788;SDS011;63313;48.258;12.518;2024-01-15T15:40:36;8.400000000000002;;;3.78;;
74788;SDS011;63313;48.258;12.518;2024-01-15T15:46:03;5.89;;;3.75;;
74788;SDS011;63313;48.258;12.518;2024-01-15T15:51:30;8.91;;;4.35;;
74788;SDS011;63313;48.258;12.518;2024-01-15T15:56:57;9.290000000000001;;;4.589999999999999;;
74788;SDS011;63313;48.258;12.518;2024-01-15T16:02:24;7.830000000000001;;;4.46;;
74788;SDS011;63313;48.258;12.518;2024-01-15T16:07:51;11.719999999999999;;;5.02;;
74788;SDS011;63313;48.258;12.518;2024-01-15T16:13:18;8.620000000000001;;;4.279999999999999;;
74788;SDS011;63313;48.258;12.518;2024-01-15T16:18:45;10.58;;;4.67;;
74788;SDS011;63313;48.258;12.518;2024-01-15T16:24:12;6.1899999999999995;;;3.7300000000000004;;
74788;SDS011;63313;48.258;12.518;2024-01-15T16:29:39;7.45;;;3.78;;
74788;SDS011;63313;48.258;12.518;2024-01-15T16:35:06;7.790000000000001;;;3.9599999999999995;;
74788;SDS011;63313;48.258;12.518;2024-01-15T16:40:33;10.379999999999999;;;4.15;;
74788;SDS011;63313;48.258;12.518;2024-01-15T16:46:00;9.080000000000002;;;4.5;;
74788;SDS011;63313;48.258;12.518;2024-01-15T16:51:28;9.05;;;4.6;;
74788;SDS011;63313;48.258;12.518;2024-01-15T16:56:55;10.76;;;4.610000000000001;;
74788;SDS011;63313;48.258;12.518;2024-01-15T17:02:22;8.069999999999999;;;4.7299999999999995;;
74788;SDS011;63313;48.258;12.518;2024-01-15T17:07:49;12.960000000000003;;;5.67;;
74788;SDS011;63313;48.258;12.518;2024-01-15T17:13:16;11.26;;;5.4;;
74788;SDS011;63313;48.258;12.518;2024-01-15T17:18:43;13.819999999999999;;;5.5;;
74788;SDS011;63313;48.258;12.518;2024-01-15T17:24:10;15.01;;;6.36;;
74788;SDS011;63313;48.258;12.518;2024-01-15T17:29:37;12.069999999999999;;;5.209999999999999;;
74788;SDS011;63313;48.258;12.518;2024-01-15T17:35:04;15.25;;;6.340000000000001;;
74788;SDS011;63313;48.258;12.518;2024-01-15T17:40:32;12.610000000000001;;;5.69;;
74788;SDS011;63313;48.258;12.518;2024-01-15T17:45:59;13.529999999999998;;;5.550000000000001;;
74788;SDS011;63313;48.258;12.518;2024-01-15T17:51:26;9.120000000000001;;;4.86;;
74788;SDS011;63313;48.258;12.518;2024-01-15T17:56:53;10.61;;;5.019999999999999;;
74788;SDS011;63313;48.258;12.518;2024-01-15T18:02:20;7.890000000000001;;;4.529999999999999;;
74788;SDS011;63313;48.258;12.518;2024-01-15T18:07:47;10.540000000000001;;;4.75;;
74788;SDS011;63313;48.258;12.518;2024-01-15T18:13:14;8.290000000000001;;;4.83;;
74788;SDS011;63313;48.258;12.518;2024-01-15T18:18:41;8.28;;;3.71;;
74788;SDS011;63313;48.258;12.518;2024-01-15T18:24:08;7.9;;;4.4399999999999995;;
74788;SDS011;63313;48.258;12.518;2024-01-15T18:29:35;8.78;;;4.480000000000001;;
74788;SDS011;63313;48.258;12.518;2024-01-15T18:35:02;6.67;;;4.619999999999999;;
74788;SDS011;63313;48.258;12.518;2024-01-15T18:40:29;7.049999999999999;;;3.96;;
74788;SDS011;63313;48.258;12.518;2024-01-15T18:45:57;5.78;;;3.8;;
74788;SDS011;63313;48.258;12.518;2024-01-15T18:51:24;7.840000000000001;;;3.94;;
74788;SDS011;63313;48.258;12.518;2024-01-15T18:56:51;5.65;;;3.8899999999999997;;
74788;SDS011;63313;48.258;12.518;2024-01-15T19:02:18;5.96;;;4.18;;
74788;SDS011;63313;48.258;12.518;2024-01-15T19:07:45;5.4399999999999995;;;3.6300000000000003;;
74788;SDS011;63313;48.258;12.518;2024-01-15T19:13:13;4.529999999999999;;;3.38;;
74788;SDS011;63313;48.258;12.518;2024-01-15T19:18:40;6.340000000000001;;;3.6900000000000004;;
74788;SDS011;63313;48.258;12.518;2024-01-15T19:24:07;8.36;;;4.49;;
74788;SDS011;63313;48.258;12.518;2024-01-15T19:29:34;5.970000000000001;;;4.22;;
74788;SDS011;63313;48.258;12.518;2024-01-15T19:35:01;5.11;;;3.7399999999999998;;
74788;SDS011;63313;48.258;12.518;2024-01-15T19:40:28;4.59;;;3.79;;
74788;SDS011;63313;48.258;12.518;2024-01-15T19:45:55;6.63;;;4.359999999999999;;
74788;SDS011;63313;48.258;12.518;2024-01-15T19:51:22;5.43;;;3.9299999999999997;;
74788;SDS011;63313;48.258;12.518;2024-01-15T19:56:49;8.4;;;4.989999999999999;;
74788;SDS011;63313;48.258;12.518;2024-01-15T20:02:16;6.94;;;4.209999999999999;;
74788;SDS011;63313;48.258;12.518;2024-01-15T20:07:43;9.84;;;4.890000000000001;;
74788;SDS011;63313;48.258;12.518;2024-01-15T20:13:10;5.6;;;4.09;;
74788;SDS011;63313;48.258;12.518;2024-01-15T20:18:38;7.87;;;4.54;;
74788;SDS011;63313;48.258;12.518;2024-01-15T20:24:05;7.139999999999999;;;4.659999999999999;;
74788;SDS011;63313;48.258;12.518;2024-01-15T20:29:32;7.989999999999999;;;4.61;;
74788;SDS011;63313;48.258;12.518;2024-01-15T20:34:59;9.970000000000002;;;4.7700000000000005;;
74788;SDS011;63313;48.258;12.518;2024-01-15T20:40:26;9.479999999999999;;;5.11;;
74788;SDS011;63313;48.258;12.518;2024-01-15T20:45:53;9.08;;;4.61;;
74788;SDS011;63313;48.258;12.518;2024-01-15T20:51:20;6.760000000000001;;;4.45;;
74788;SDS011;63313;48.258;12.518;2024-01-15T20:56:47;6.710000000000001;;;4.38;;
74788;SDS011;63313;48.258;12.518;2024-01-15T21:02:14;9.749999999999998;;;4.5200000000000005;;
74788;SDS011;63313;48.258;12.518;2024-01-15T21:07:42;7.1;;;4.34;;
74788;SDS011;63313;48.258;12.518;2024-01-15T21:13:09;8.62;;;4.38;;
74788;SDS011;63313;48.258;12.518;2024-01-15T21:18:36;9.930000000000001;;;4.5600000000000005;;
74788;SDS011;63313;48.258;12.518;2024-01-15T21:24:03;7.94;;;4.51;;
74788;SDS011;63313;48.258;12.518;2024-01-15T21:29:30;9.619999999999997;;;4.880000000000001;;
74788;SDS011;63313;48.258;12.518;2024-01-15T21:34:57;8.639999999999999;;;4.359999999999999;;
74788;SDS011;63313;48.258;12.518;2024-01-15T21:40:24;11.579999999999998;;;4.69;;
74788;SDS011;63313;48.258;12.518;2024-01-15T21:45:51;10.18;;;4.68;;
74788;SDS011;63313;48.258;12.518;2024-01-15T21:51:18;6.459999999999999;;;3.9099999999999993;;
74788;SDS011;63313;48.258;12.518;2024-01-15T21:56:45;6.959999999999999;;;4.5600000000000005;;
74788;SDS011;63313;48.258;12.518;2024-01-15T22:02:12;9.940000000000001;;;4.590000000000001;;
74788;SDS011;63313;48.258;12.518;2024-01-15T22:07:40;6.8;;;4.16;;
74788;SDS011;63313;48.258;12.518;2024-01-15T22:13:07;6.249999999999999;;;3.59;;
74788;SDS011;63313;48.258;12.518;2024-01-15T22:18:34;5.92;;;3.7300000000000004;;
74788;SDS011;63313;48.258;12.518;2024-01-15T22:24:01;7.389999999999999;;;3.66;;
74788;SDS011;63313;48.258;12.518;2024-01-15T22:29:28;8.06;;;4.0200000000000005;;
74788;SDS011;63313;48.258;12.518;2024-01-15T22:34:55;8.15;;;4.209999999999999;;
74788;SDS011;63313;48.258;12.518;2024-01-15T22:40:22;6.7700000000000005;;;3.7099999999999995;;
74788;SDS011;63313;48.258;12.518;2024-01-15T22:45:49;7.989999999999999;;;3.62;;
74788;SDS011;63313;48.258;12.518;2024-01-15T22:51:17;10.160000000000002;;;4.5200000000000005;;
74788;SDS011;63313;48.258;12.518;2024-01-15T22:56:44;8.26;;;3.9799999999999995;;
74788;SDS011;63313;48.258;12.518;2024-01-15T23:02:11;6.840000000000001;;;3.4300000000000006;;
74788;SDS011;63313;48.258;12.518;2024-01-15T23:07:38;5.96;;;2.96;;
74788;SDS011;63313;48.258;12.518;2024-01-15T23:13:05;9.830000000000002;;;3.06;;
74788;SDS011;63313;48.258;12.518;2024-01-15T23:18:32;6.01;;;3.44;;
74788;SDS011;63313;48.258;12.518;2024-01-15T23:23:59;5.9399999999999995;;;3.69;;
74788;SDS011;63313;48.258;12.518;2024-01-15T23:29:26;6.75;;;3.35;;
74788;SDS011;63313;48.258;12.518;2024-01-15T23:34:53;7.789999999999999;;;3.55;;
74788;SDS011;63313;48.258;12.518;2024-01-15T23:40:20;8.02;;;3.3600000000000003;;
74788;SDS011;63313;48.258;12.518;2024-01-15T23:45:47;5.409999999999999;;;3.08;;
74788;SDS011;63313;48.258;12.518;2024-01-15T23:51:14;4.08;;;2.54;;
74788;SDS011;63313;48.258;12.518;2024-01-15T23:56:41;3.41;;;2.29;;
